sensor_id;sensor_type;location;lat;lon;timestamp;temperature;humidity
6307;DHT22;3186;54.062;9.962;2024-03-08T00:01:35;3.60;99.90
6307;DHT22;3186;54.062;9.962;2024-03-08T00:04:01;3.50;99.90
6307;DHT22;3186;54.062;9.962;2024-03-08T00:06:27;3.60;99.90
6307;DHT22;3186;54.062;9.962;2024-03-08T00:08:52;3.60;99.90
6307;DHT22;3186;54.062;9.962;2024-03-08T00:11:18;3.50;99.90
6307;DHT22;3186;54.062;9.962;2024-03-08T00:13:44;3.50;99.90
6307;DHT22;3186;54.062;9.962;2024-03-08T00:16:10;3.50;99.90
6307;DHT22;3186;54.062;9.962;2024-03-08T00:18:36;3.50;99.90
6307;DHT22;3186;54.062;9.962;2024-03-08T00:21:02;3.50;99.90
6307;DHT22;3186;54.062;9.962;2024-03-08T00:23:27;3.50;99.90
6307;DHT22;3186;54.062;9.962;2024-03-08T00:25:53;3.40;99.90
6307;DHT22;3186;54.062;9.962;2024-03-08T00:28:20;3.40;99.90
6307;DHT22;3186;54.062;9.962;2024-03-08T00:30:46;3.40;99.90
6307;DHT22;3186;54.062;9.962;2024-03-08T00:33:12;3.40;99.90
6307;DHT22;3186;54.062;9.962;2024-03-08T00:35:37;3.30;99.90
6307;DHT22;3186;54.062;9.962;2024-03-08T00:38:03;3.40;99.90
6307;DHT22;3186;54.062;9.962;2024-03-08T00:40:29;3.30;99.90
6307;DHT22;3186;54.062;9.962;2024-03-08T00:42:54;3.30;99.90
6307;DHT22;3186;54.062;9.962;2024-03-08T00:45:20;3.30;99.90
6307;DHT22;3186;54.062;9.962;2024-03-08T00:47:45;3.20;99.90
6307;DHT22;3186;54.062;9.962;2024-03-08T00:50:11;3.30;99.90
6307;DHT22;3186;54.062;9.962;2024-03-08T00:52:38;3.30;99.90
6307;DHT22;3186;54.062;9.962;2024-03-08T00:55:04;3.20;99.90
6307;DHT22;3186;54.062;9.962;2024-03-08T00:57:29;3.20;99.90
6307;DHT22;3186;54.062;9.962;2024-03-08T00:59:55;3.20;99.90
6307;DHT22;3186;54.062;9.962;2024-03-08T01:02:21;3.20;99.90
6307;DHT22;3186;54.062;9.962;2024-03-08T01:04:48;3.10;99.90
6307;DHT22;3186;54.062;9.962;2024-03-08T01:07:14;3.10;99.90
6307;DHT22;3186;54.062;9.962;2024-03-08T01:09:40;3.10;99.90
6307;DHT22;3186;54.062;9.962;2024-03-08T01:12:06;3.10;99.90
6307;DHT22;3186;54.062;9.962;2024-03-08T01:14:32;3.10;99.90
6307;DHT22;3186;54.062;9.962;2024-03-08T01:16:58;3.10;99.90
6307;DHT22;3186;54.062;9.962;2024-03-08T01:19:24;3.10;99.90
6307;DHT22;3186;54.062;9.962;2024-03-08T01:21:50;3.10;99.90
6307;DHT22;3186;54.062;9.962;2024-03-08T01:24:16;3.10;99.90
6307;DHT22;3186;54.062;9.962;2024-03-08T01:26:42;3.00;99.90
6307;DHT22;3186;54.062;9.962;2024-03-08T01:29:08;3.00;99.90
6307;DHT22;3186;54.062;9.962;2024-03-08T01:31:33;3.00;99.90
6307;DHT22;3186;54.062;9.962;2024-03-08T01:33:59;3.00;99.90
6307;DHT22;3186;54.062;9.962;2024-03-08T01:36:25;2.90;99.90
6307;DHT22;3186;54.062;9.962;2024-03-08T01:38:51;2.90;99.90
6307;DHT22;3186;54.062;9.962;2024-03-08T01:41:17;2.90;99.90
6307;DHT22;3186;54.062;9.962;2024-03-08T01:43:44;2.90;99.90
6307;DHT22;3186;54.062;9.962;2024-03-08T01:46:13;2.90;99.90
6307;DHT22;3186;54.062;9.962;2024-03-08T01:48:42;3.00;99.90
6307;DHT22;3186;54.062;9.962;2024-03-08T01:51:08;2.90;99.90
6307;DHT22;3186;54.062;9.962;2024-03-08T01:53:34;2.90;99.90
6307;DHT22;3186;54.062;9.962;2024-03-08T01:56:01;2.80;99.90
6307;DHT22;3186;54.062;9.962;2024-03-08T01:58:28;2.80;99.90
6307;DHT22;3186;54.062;9.962;2024-03-08T02:00:56;2.80;99.90
6307;DHT22;3186;54.062;9.962;2024-03-08T02:03:22;2.80;99.90
6307;DHT22;3186;54.062;9.962;2024-03-08T02:05:49;2.80;99.90
6307;DHT22;3186;54.062;9.962;2024-03-08T02:08:15;2.80;99.90
6307;DHT22;3186;54.062;9.962;2024-03-08T02:10:43;3.30;99.90
6307;DHT22;3186;54.062;9.962;2024-03-08T02:13:09;2.70;99.90
6307;DHT22;3186;54.062;9.962;2024-03-08T02:15:54;2.70;99.90
6307;DHT22;3186;54.062;9.962;2024-03-08T02:18:21;2.80;99.90
6307;DHT22;3186;54.062;9.962;2024-03-08T02:20:48;2.70;99.90
6307;DHT22;3186;54.062;9.962;2024-03-08T02:23:14;2.70;99.90
6307;DHT22;3186;54.062;9.962;2024-03-08T02:25:40;2.70;99.90
6307;DHT22;3186;54.062;9.962;2024-03-08T02:28:11;2.70;99.90
6307;DHT22;3186;54.062;9.962;2024-03-08T02:30:37;2.70;99.90
6307;DHT22;3186;54.062;9.962;2024-03-08T02:33:02;2.60;99.90
6307;DHT22;3186;54.062;9.962;2024-03-08T02:35:29;2.60;99.90
6307;DHT22;3186;54.062;9.962;2024-03-08T02:37:55;2.60;99.90
6307;DHT22;3186;54.062;9.962;2024-03-08T02:40:21;2.60;99.90
6307;DHT22;3186;54.062;9.962;2024-03-08T02:42:47;2.60;99.90
6307;DHT22;3186;54.062;9.962;2024-03-08T02:45:13;2.60;99.90
6307;DHT22;3186;54.062;9.962;2024-03-08T02:47:39;2.60;99.90
6307;DHT22;3186;54.062;9.962;2024-03-08T02:50:05;2.50;99.90
6307;DHT22;3186;54.062;9.962;2024-03-08T02:52:34;2.50;99.90
6307;DHT22;3186;54.062;9.962;2024-03-08T02:55:01;2.60;99.90
6307;DHT22;3186;54.062;9.962;2024-03-08T02:57:27;2.50;99.90
6307;DHT22;3186;54.062;9.962;2024-03-08T02:59:53;2.50;99.90
6307;DHT22;3186;54.062;9.962;2024-03-08T03:02:19;2.50;99.90
6307;DHT22;3186;54.062;9.962;2024-03-08T03:04:45;2.50;99.90
6307;DHT22;3186;54.062;9.962;2024-03-08T03:07:11;2.40;99.90
6307;DHT22;3186;54.062;9.962;2024-03-08T03:09:36;2.40;99.90
6307;DHT22;3186;54.062;9.962;2024-03-08T03:12:02;2.40;99.90
6307;DHT22;3186;54.062;9.962;2024-03-08T03:14:28;2.50;99.90
6307;DHT22;3186;54.062;9.962;2024-03-08T03:16:54;2.50;99.90
6307;DHT22;3186;54.062;9.962;2024-03-08T03:19:20;2.50;99.90
6307;DHT22;3186;54.062;9.962;2024-03-08T03:21:46;2.40;99.90
6307;DHT22;3186;54.062;9.962;2024-03-08T03:24:12;2.20;99.90
6307;DHT22;3186;54.062;9.962;2024-03-08T03:26:41;2.40;99.90
6307;DHT22;3186;54.062;9.962;2024-03-08T03:29:09;2.40;99.90
6307;DHT22;3186;54.062;9.962;2024-03-08T03:31:36;2.40;99.90
6307;DHT22;3186;54.062;9.962;2024-03-08T03:34:02;2.40;99.90
6307;DHT22;3186;54.062;9.962;2024-03-08T03:36:30;2.40;99.90
6307;DHT22;3186;54.062;9.962;2024-03-08T03:38:55;2.40;99.90
6307;DHT22;3186;54.062;9.962;2024-03-08T03:41:36;2.40;99.90
6307;DHT22;3186;54.062;9.962;2024-03-08T03:44:02;2.40;99.90
6307;DHT22;3186;54.062;9.962;2024-03-08T03:46:28;2.40;99.90
6307;DHT22;3186;54.062;9.962;2024-03-08T03:48:56;2.40;99.90
6307;DHT22;3186;54.062;9.962;2024-03-08T03:51:22;2.40;99.90
6307;DHT22;3186;54.062;9.962;2024-03-08T03:53:48;2.40;99.90
6307;DHT22;3186;54.062;9.962;2024-03-08T03:56:14;2.40;99.90
6307;DHT22;3186;54.062;9.962;2024-03-08T03:58:39;2.40;99.90
6307;DHT22;3186;54.062;9.962;2024-03-08T04:01:05;2.50;99.90
6307;DHT22;3186;54.062;9.962;2024-03-08T04:03:31;2.50;99.90
6307;DHT22;3186;54.062;9.962;2024-03-08T04:05:57;2.40;99.90
6307;DHT22;3186;54.062;9.962;2024-03-08T04:08:22;2.50;99.90
6307;DHT22;3186;54.062;9.962;2024-03-08T04:10:51;2.70;99.90
6307;DHT22;3186;54.062;9.962;2024-03-08T04:13:17;2.50;99.90
6307;DHT22;3186;54.062;9.962;2024-03-08T04:15:42;2.40;99.90
6307;DHT22;3186;54.062;9.962;2024-03-08T04:18:13;2.30;99.90
6307;DHT22;3186;54.062;9.962;2024-03-08T04:20:39;2.50;99.90
6307;DHT22;3186;54.062;9.962;2024-03-08T04:23:06;2.70;99.90
6307;DHT22;3186;54.062;9.962;2024-03-08T04:25:31;2.50;99.90
6307;DHT22;3186;54.062;9.962;2024-03-08T04:27:57;2.50;99.90
6307;DHT22;3186;54.062;9.962;2024-03-08T04:30:23;2.50;99.90
6307;DHT22;3186;54.062;9.962;2024-03-08T04:32:49;2.50;99.90
6307;DHT22;3186;54.062;9.962;2024-03-08T04:35:16;2.50;99.90
6307;DHT22;3186;54.062;9.962;2024-03-08T04:37:42;2.50;99.90
6307;DHT22;3186;54.062;9.962;2024-03-08T04:40:08;2.50;99.90
6307;DHT22;3186;54.062;9.962;2024-03-08T04:42:33;2.60;99.90
6307;DHT22;3186;54.062;9.962;2024-03-08T04:45:00;2.60;99.90
6307;DHT22;3186;54.062;9.962;2024-03-08T04:47:26;2.60;99.90
6307;DHT22;3186;54.062;9.962;2024-03-08T04:49:51;2.50;99.90
6307;DHT22;3186;54.062;9.962;2024-03-08T04:52:17;2.50;99.90
6307;DHT22;3186;54.062;9.962;2024-03-08T04:54:43;2.60;99.90
6307;DHT22;3186;54.062;9.962;2024-03-08T04:57:10;2.60;99.90
6307;DHT22;3186;54.062;9.962;2024-03-08T04:59:36;2.60;99.90
6307;DHT22;3186;54.062;9.962;2024-03-08T05:02:02;2.60;99.90
6307;DHT22;3186;54.062;9.962;2024-03-08T05:04:28;2.70;99.90
6307;DHT22;3186;54.062;9.962;2024-03-08T05:06:54;2.70;99.90
6307;DHT22;3186;54.062;9.962;2024-03-08T05:09:20;2.70;99.90
6307;DHT22;3186;54.062;9.962;2024-03-08T05:11:47;2.60;99.90
6307;DHT22;3186;54.062;9.962;2024-03-08T05:14:14;2.60;99.90
6307;DHT22;3186;54.062;9.962;2024-03-08T05:16:44;2.70;99.90
6307;DHT22;3186;54.062;9.962;2024-03-08T05:19:17;2.70;99.90
6307;DHT22;3186;54.062;9.962;2024-03-08T05:21:44;2.60;99.90
6307;DHT22;3186;54.062;9.962;2024-03-08T05:24:09;2.60;99.90
6307;DHT22;3186;54.062;9.962;2024-03-08T05:26:36;2.60;99.90
6307;DHT22;3186;54.062;9.962;2024-03-08T05:29:03;2.70;99.90
6307;DHT22;3186;54.062;9.962;2024-03-08T05:31:30;2.60;99.90
6307;DHT22;3186;54.062;9.962;2024-03-08T05:33:57;2.60;99.90
6307;DHT22;3186;54.062;9.962;2024-03-08T05:36:22;2.60;99.90
6307;DHT22;3186;54.062;9.962;2024-03-08T05:38:48;2.60;99.90
6307;DHT22;3186;54.062;9.962;2024-03-08T05:41:16;2.60;99.90
6307;DHT22;3186;54.062;9.962;2024-03-08T05:43:43;2.70;99.90
6307;DHT22;3186;54.062;9.962;2024-03-08T05:46:09;2.70;99.90
6307;DHT22;3186;54.062;9.962;2024-03-08T05:48:37;2.60;99.90
6307;DHT22;3186;54.062;9.962;2024-03-08T05:51:03;2.70;99.90
6307;DHT22;3186;54.062;9.962;2024-03-08T05:53:29;2.70;99.90
6307;DHT22;3186;54.062;9.962;2024-03-08T05:55:57;2.70;99.90
6307;DHT22;3186;54.062;9.962;2024-03-08T05:58:24;2.70;99.90
6307;DHT22;3186;54.062;9.962;2024-03-08T06:00:49;2.70;99.90
6307;DHT22;3186;54.062;9.962;2024-03-08T06:03:15;2.70;99.90
6307;DHT22;3186;54.062;9.962;2024-03-08T06:05:41;2.70;99.90
6307;DHT22;3186;54.062;9.962;2024-03-08T06:08:07;2.70;99.90
6307;DHT22;3186;54.062;9.962;2024-03-08T06:10:33;2.70;99.90
6307;DHT22;3186;54.062;9.962;2024-03-08T06:12:59;2.70;99.90
6307;DHT22;3186;54.062;9.962;2024-03-08T06:15:25;2.70;99.90
6307;DHT22;3186;54.062;9.962;2024-03-08T06:17:51;2.70;99.90
6307;DHT22;3186;54.062;9.962;2024-03-08T06:20:18;2.70;99.90
6307;DHT22;3186;54.062;9.962;2024-03-08T06:22:44;2.70;99.90
6307;DHT22;3186;54.062;9.962;2024-03-08T06:25:13;2.70;99.90
6307;DHT22;3186;54.062;9.962;2024-03-08T06:27:40;2.70;99.90
6307;DHT22;3186;54.062;9.962;2024-03-08T06:30:06;2.70;99.90
6307;DHT22;3186;54.062;9.962;2024-03-08T06:32:32;2.70;99.90
6307;DHT22;3186;54.062;9.962;2024-03-08T06:35:01;2.70;99.90
6307;DHT22;3186;54.062;9.962;2024-03-08T06:37:28;2.80;99.90
6307;DHT22;3186;54.062;9.962;2024-03-08T06:39:53;2.70;99.90
6307;DHT22;3186;54.062;9.962;2024-03-08T06:42:20;2.80;99.90
6307;DHT22;3186;54.062;9.962;2024-03-08T06:44:46;2.70;99.90
6307;DHT22;3186;54.062;9.962;2024-03-08T06:47:15;2.70;99.90
6307;DHT22;3186;54.062;9.962;2024-03-08T06:49:42;2.70;99.90
6307;DHT22;3186;54.062;9.962;2024-03-08T06:52:09;2.80;99.90
6307;DHT22;3186;54.062;9.962;2024-03-08T06:54:36;2.80;99.90
6307;DHT22;3186;54.062;9.962;2024-03-08T06:57:05;2.80;99.90
6307;DHT22;3186;54.062;9.962;2024-03-08T06:59:31;2.80;99.90
6307;DHT22;3186;54.062;9.962;2024-03-08T07:01:57;2.80;99.90
6307;DHT22;3186;54.062;9.962;2024-03-08T07:04:25;2.70;99.90
6307;DHT22;3186;54.062;9.962;2024-03-08T07:06:54;2.80;99.90
6307;DHT22;3186;54.062;9.962;2024-03-08T07:09:19;2.70;99.90
6307;DHT22;3186;54.062;9.962;2024-03-08T07:11:45;2.70;99.90
6307;DHT22;3186;54.062;9.962;2024-03-08T07:14:12;2.70;99.90
6307;DHT22;3186;54.062;9.962;2024-03-08T07:16:40;2.80;99.90
6307;DHT22;3186;54.062;9.962;2024-03-08T07:19:07;2.80;99.90
6307;DHT22;3186;54.062;9.962;2024-03-08T07:21:32;2.80;99.90
6307;DHT22;3186;54.062;9.962;2024-03-08T07:23:58;2.80;99.90
6307;DHT22;3186;54.062;9.962;2024-03-08T07:26:26;2.80;99.90
6307;DHT22;3186;54.062;9.962;2024-03-08T07:28:53;2.80;99.90
6307;DHT22;3186;54.062;9.962;2024-03-08T07:31:20;2.80;99.90
6307;DHT22;3186;54.062;9.962;2024-03-08T07:34:04;2.80;99.90
6307;DHT22;3186;54.062;9.962;2024-03-08T07:36:33;2.80;99.90
6307;DHT22;3186;54.062;9.962;2024-03-08T07:39:00;2.90;99.90
6307;DHT22;3186;54.062;9.962;2024-03-08T07:41:26;2.90;99.90
6307;DHT22;3186;54.062;9.962;2024-03-08T07:43:51;2.90;99.90
6307;DHT22;3186;54.062;9.962;2024-03-08T07:46:17;2.80;99.90
6307;DHT22;3186;54.062;9.962;2024-03-08T07:48:44;2.80;99.90
6307;DHT22;3186;54.062;9.962;2024-03-08T07:51:10;2.90;99.90
6307;DHT22;3186;54.062;9.962;2024-03-08T07:53:38;2.90;99.90
6307;DHT22;3186;54.062;9.962;2024-03-08T07:56:04;2.90;99.90
6307;DHT22;3186;54.062;9.962;2024-03-08T07:58:32;2.90;99.90
6307;DHT22;3186;54.062;9.962;2024-03-08T08:00:58;3.00;99.90
6307;DHT22;3186;54.062;9.962;2024-03-08T08:03:23;2.90;99.90
6307;DHT22;3186;54.062;9.962;2024-03-08T08:05:49;2.90;99.90
6307;DHT22;3186;54.062;9.962;2024-03-08T08:08:15;3.00;99.90
6307;DHT22;3186;54.062;9.962;2024-03-08T08:10:40;3.00;99.90
6307;DHT22;3186;54.062;9.962;2024-03-08T08:13:07;3.00;99.90
6307;DHT22;3186;54.062;9.962;2024-03-08T08:15:33;3.00;99.90
6307;DHT22;3186;54.062;9.962;2024-03-08T08:18:01;2.90;99.90
6307;DHT22;3186;54.062;9.962;2024-03-08T08:20:30;3.00;99.90
6307;DHT22;3186;54.062;9.962;2024-03-08T08:22:57;3.00;99.90
6307;DHT22;3186;54.062;9.962;2024-03-08T08:25:24;3.00;99.90
6307;DHT22;3186;54.062;9.962;2024-03-08T08:27:50;3.00;99.90
6307;DHT22;3186;54.062;9.962;2024-03-08T08:30:16;3.00;99.90
6307;DHT22;3186;54.062;9.962;2024-03-08T08:32:41;3.00;99.90
6307;DHT22;3186;54.062;9.962;2024-03-08T08:35:10;3.00;99.90
6307;DHT22;3186;54.062;9.962;2024-03-08T08:37:40;3.00;99.90
6307;DHT22;3186;54.062;9.962;2024-03-08T08:40:07;3.00;99.90
6307;DHT22;3186;54.062;9.962;2024-03-08T08:42:40;3.00;99.90
6307;DHT22;3186;54.062;9.962;2024-03-08T08:45:06;3.10;99.90
6307;DHT22;3186;54.062;9.962;2024-03-08T08:47:38;3.10;99.90
6307;DHT22;3186;54.062;9.962;2024-03-08T08:50:04;3.10;99.90
6307;DHT22;3186;54.062;9.962;2024-03-08T08:52:33;3.10;99.90
6307;DHT22;3186;54.062;9.962;2024-03-08T08:55:00;3.20;99.90
6307;DHT22;3186;54.062;9.962;2024-03-08T08:57:25;3.20;99.90
6307;DHT22;3186;54.062;9.962;2024-03-08T08:59:52;3.20;99.90
6307;DHT22;3186;54.062;9.962;2024-03-08T09:02:18;3.20;99.90
6307;DHT22;3186;54.062;9.962;2024-03-08T09:04:46;3.20;99.90
6307;DHT22;3186;54.062;9.962;2024-03-08T09:07:13;3.20;99.90
6307;DHT22;3186;54.062;9.962;2024-03-08T09:09:39;3.20;99.90
6307;DHT22;3186;54.062;9.962;2024-03-08T09:12:05;3.20;99.90
6307;DHT22;3186;54.062;9.962;2024-03-08T09:14:30;3.30;99.90
6307;DHT22;3186;54.062;9.962;2024-03-08T09:16:56;3.20;99.90
6307;DHT22;3186;54.062;9.962;2024-03-08T09:19:22;3.40;99.90
6307;DHT22;3186;54.062;9.962;2024-03-08T09:21:51;3.30;99.90
6307;DHT22;3186;54.062;9.962;2024-03-08T09:24:17;3.30;99.90
6307;DHT22;3186;54.062;9.962;2024-03-08T09:26:42;3.40;99.90
6307;DHT22;3186;54.062;9.962;2024-03-08T09:29:08;3.40;99.90
6307;DHT22;3186;54.062;9.962;2024-03-08T09:31:36;3.40;99.90
6307;DHT22;3186;54.062;9.962;2024-03-08T09:34:03;3.50;99.90
6307;DHT22;3186;54.062;9.962;2024-03-08T09:36:29;3.50;99.90
6307;DHT22;3186;54.062;9.962;2024-03-08T09:38:55;3.50;99.90
6307;DHT22;3186;54.062;9.962;2024-03-08T09:41:21;3.60;99.90
6307;DHT22;3186;54.062;9.962;2024-03-08T09:43:46;3.70;99.90
6307;DHT22;3186;54.062;9.962;2024-03-08T09:46:12;3.80;99.90
6307;DHT22;3186;54.062;9.962;2024-03-08T09:48:39;3.80;99.90
6307;DHT22;3186;54.062;9.962;2024-03-08T09:51:07;3.90;99.90
6307;DHT22;3186;54.062;9.962;2024-03-08T09:53:33;3.90;99.90
6307;DHT22;3186;54.062;9.962;2024-03-08T09:56:00;4.00;99.90
6307;DHT22;3186;54.062;9.962;2024-03-08T09:58:29;4.00;99.90
6307;DHT22;3186;54.062;9.962;2024-03-08T10:01:18;4.10;99.90
6307;DHT22;3186;54.062;9.962;2024-03-08T10:03:43;4.20;99.90
6307;DHT22;3186;54.062;9.962;2024-03-08T10:06:09;4.10;99.90
6307;DHT22;3186;54.062;9.962;2024-03-08T10:08:35;4.20;99.90
6307;DHT22;3186;54.062;9.962;2024-03-08T10:11:02;4.20;99.90
6307;DHT22;3186;54.062;9.962;2024-03-08T10:13:27;4.30;99.90
6307;DHT22;3186;54.062;9.962;2024-03-08T10:15:54;4.30;99.90
6307;DHT22;3186;54.062;9.962;2024-03-08T10:18:20;4.30;99.90
6307;DHT22;3186;54.062;9.962;2024-03-08T10:20:53;4.40;99.90
6307;DHT22;3186;54.062;9.962;2024-03-08T10:23:29;4.30;99.90
6307;DHT22;3186;54.062;9.962;2024-03-08T10:25:55;4.30;99.90
6307;DHT22;3186;54.062;9.962;2024-03-08T10:28:23;4.40;99.90
6307;DHT22;3186;54.062;9.962;2024-03-08T10:30:50;4.60;99.90
6307;DHT22;3186;54.062;9.962;2024-03-08T10:33:16;4.60;99.90
6307;DHT22;3186;54.062;9.962;2024-03-08T10:35:41;4.70;99.90
6307;DHT22;3186;54.062;9.962;2024-03-08T10:38:09;4.80;99.90
6307;DHT22;3186;54.062;9.962;2024-03-08T10:40:39;5.10;99.90
6307;DHT22;3186;54.062;9.962;2024-03-08T10:43:11;4.80;99.90
6307;DHT22;3186;54.062;9.962;2024-03-08T10:45:43;5.20;99.90
6307;DHT22;3186;54.062;9.962;2024-03-08T10:48:28;3.00;99.90
6307;DHT22;3186;54.062;9.962;2024-03-08T10:50:57;5.30;99.90
6307;DHT22;3186;54.062;9.962;2024-03-08T10:53:27;5.00;99.90
6307;DHT22;3186;54.062;9.962;2024-03-08T10:55:53;4.90;99.90
6307;DHT22;3186;54.062;9.962;2024-03-08T10:58:24;5.20;99.90
6307;DHT22;3186;54.062;9.962;2024-03-08T11:00:53;5.50;99.90
6307;DHT22;3186;54.062;9.962;2024-03-08T11:06:18;5.60;99.90
6307;DHT22;3186;54.062;9.962;2024-03-08T11:08:49;5.60;99.60
6307;DHT22;3186;54.062;9.962;2024-03-08T11:11:28;5.50;98.50
6307;DHT22;3186;54.062;9.962;2024-03-08T11:13:58;5.50;99.20
6307;DHT22;3186;54.062;9.962;2024-03-08T11:18:59;6.40;90.20
6307;DHT22;3186;54.062;9.962;2024-03-08T11:21:33;6.80;87.10
6307;DHT22;3186;54.062;9.962;2024-03-08T11:24:06;6.30;91.30
6307;DHT22;3186;54.062;9.962;2024-03-08T11:26:33;6.20;93.50
6307;DHT22;3186;54.062;9.962;2024-03-08T11:29:39;6.30;91.20
6307;DHT22;3186;54.062;9.962;2024-03-08T11:34:41;6.80;71.10
6307;DHT22;3186;54.062;9.962;2024-03-08T11:37:18;6.90;76.90
6307;DHT22;3186;54.062;9.962;2024-03-08T11:39:51;7.50;76.70
6307;DHT22;3186;54.062;9.962;2024-03-08T11:42:20;7.80;59.10
6307;DHT22;3186;54.062;9.962;2024-03-08T11:44:46;7.40;61.90
6307;DHT22;3186;54.062;9.962;2024-03-08T11:47:13;7.40;63.00
6307;DHT22;3186;54.062;9.962;2024-03-08T11:49:40;7.40;62.40
6307;DHT22;3186;54.062;9.962;2024-03-08T11:52:13;7.30;65.00
6307;DHT22;3186;54.062;9.962;2024-03-08T11:54:39;7.30;65.70
6307;DHT22;3186;54.062;9.962;2024-03-08T11:57:05;8.20;51.60
6307;DHT22;3186;54.062;9.962;2024-03-08T11:59:31;8.20;46.50
6307;DHT22;3186;54.062;9.962;2024-03-08T12:02:07;8.30;45.30
6307;DHT22;3186;54.062;9.962;2024-03-08T12:04:36;8.40;50.10
6307;DHT22;3186;54.062;9.962;2024-03-08T12:07:03;7.90;64.80
6307;DHT22;3186;54.062;9.962;2024-03-08T12:09:35;7.70;69.40
6307;DHT22;3186;54.062;9.962;2024-03-08T12:12:02;8.20;66.90
6307;DHT22;3186;54.062;9.962;2024-03-08T12:14:30;8.70;70.20
6307;DHT22;3186;54.062;9.962;2024-03-08T12:16:55;8.00;60.30
6307;DHT22;3186;54.062;9.962;2024-03-08T12:19:21;8.40;48.60
6307;DHT22;3186;54.062;9.962;2024-03-08T12:21:47;8.30;62.70
6307;DHT22;3186;54.062;9.962;2024-03-08T12:24:16;8.10;67.80
6307;DHT22;3186;54.062;9.962;2024-03-08T12:26:46;7.90;57.10
6307;DHT22;3186;54.062;9.962;2024-03-08T12:29:25;8.20;58.80
6307;DHT22;3186;54.062;9.962;2024-03-08T12:31:55;7.90;63.70
6307;DHT22;3186;54.062;9.962;2024-03-08T12:34:21;8.00;71.90
6307;DHT22;3186;54.062;9.962;2024-03-08T12:36:50;8.70;50.00
6307;DHT22;3186;54.062;9.962;2024-03-08T12:39:21;8.70;57.20
6307;DHT22;3186;54.062;9.962;2024-03-08T12:41:53;9.00;56.20
6307;DHT22;3186;54.062;9.962;2024-03-08T12:44:20;8.80;64.50
6307;DHT22;3186;54.062;9.962;2024-03-08T12:46:47;8.80;55.40
6307;DHT22;3186;54.062;9.962;2024-03-08T12:49:14;8.80;63.90
6307;DHT22;3186;54.062;9.962;2024-03-08T12:51:45;8.90;72.50
6307;DHT22;3186;54.062;9.962;2024-03-08T12:54:11;8.40;65.20
6307;DHT22;3186;54.062;9.962;2024-03-08T12:56:37;8.80;72.30
6307;DHT22;3186;54.062;9.962;2024-03-08T12:59:04;8.90;48.10
6307;DHT22;3186;54.062;9.962;2024-03-08T13:01:31;9.20;69.80
6307;DHT22;3186;54.062;9.962;2024-03-08T13:03:59;9.50;69.40
6307;DHT22;3186;54.062;9.962;2024-03-08T13:06:28;9.30;62.50
6307;DHT22;3186;54.062;9.962;2024-03-08T13:08:54;9.30;77.20
6307;DHT22;3186;54.062;9.962;2024-03-08T13:11:26;9.30;73.40
6307;DHT22;3186;54.062;9.962;2024-03-08T13:13:52;9.00;79.40
6307;DHT22;3186;54.062;9.962;2024-03-08T13:16:18;9.50;73.70
6307;DHT22;3186;54.062;9.962;2024-03-08T13:18:45;9.50;82.00
6307;DHT22;3186;54.062;9.962;2024-03-08T13:21:14;9.70;87.50
6307;DHT22;3186;54.062;9.962;2024-03-08T13:23:41;9.60;83.00
6307;DHT22;3186;54.062;9.962;2024-03-08T13:26:12;9.90;63.40
6307;DHT22;3186;54.062;9.962;2024-03-08T13:28:45;9.90;69.30
6307;DHT22;3186;54.062;9.962;2024-03-08T13:31:12;9.60;76.30
6307;DHT22;3186;54.062;9.962;2024-03-08T13:33:38;9.90;93.70
6307;DHT22;3186;54.062;9.962;2024-03-08T13:36:08;9.60;85.70
6307;DHT22;3186;54.062;9.962;2024-03-08T13:38:49;9.60;78.60
6307;DHT22;3186;54.062;9.962;2024-03-08T13:41:15;9.70;79.60
6307;DHT22;3186;54.062;9.962;2024-03-08T13:43:46;9.70;91.20
6307;DHT22;3186;54.062;9.962;2024-03-08T13:46:12;9.80;96.40
6307;DHT22;3186;54.062;9.962;2024-03-08T13:48:38;9.90;97.70
6307;DHT22;3186;54.062;9.962;2024-03-08T13:51:07;9.90;88.80
6307;DHT22;3186;54.062;9.962;2024-03-08T13:53:35;10.00;94.70
6307;DHT22;3186;54.062;9.962;2024-03-08T13:56:04;9.90;92.30
6307;DHT22;3186;54.062;9.962;2024-03-08T13:58:31;10.10;74.90
6307;DHT22;3186;54.062;9.962;2024-03-08T14:00:56;9.70;67.10
6307;DHT22;3186;54.062;9.962;2024-03-08T14:03:22;9.90;95.60
6307;DHT22;3186;54.062;9.962;2024-03-08T14:05:49;10.20;92.20
6307;DHT22;3186;54.062;9.962;2024-03-08T14:08:15;10.20;76.70
6307;DHT22;3186;54.062;9.962;2024-03-08T14:10:45;10.10;92.40
6307;DHT22;3186;54.062;9.962;2024-03-08T14:13:15;10.20;98.80
6307;DHT22;3186;54.062;9.962;2024-03-08T14:15:44;10.30;96.90
6307;DHT22;3186;54.062;9.962;2024-03-08T14:18:11;10.40;91.60
6307;DHT22;3186;54.062;9.962;2024-03-08T14:20:39;10.30;92.50
6307;DHT22;3186;54.062;9.962;2024-03-08T14:23:04;10.40;98.60
6307;DHT22;3186;54.062;9.962;2024-03-08T14:25:33;10.20;96.70
6307;DHT22;3186;54.062;9.962;2024-03-08T14:27:59;10.30;95.50
6307;DHT22;3186;54.062;9.962;2024-03-08T14:30:33;10.40;99.90
6307;DHT22;3186;54.062;9.962;2024-03-08T14:33:06;10.10;98.20
6307;DHT22;3186;54.062;9.962;2024-03-08T14:35:37;10.30;98.10
6307;DHT22;3186;54.062;9.962;2024-03-08T14:38:03;10.40;94.60
6307;DHT22;3186;54.062;9.962;2024-03-08T14:40:29;10.40;99.90
6307;DHT22;3186;54.062;9.962;2024-03-08T14:42:56;10.40;99.90
6307;DHT22;3186;54.062;9.962;2024-03-08T14:45:22;10.50;85.90
6307;DHT22;3186;54.062;9.962;2024-03-08T14:47:50;10.50;99.90
6307;DHT22;3186;54.062;9.962;2024-03-08T14:50:19;10.30;93.90
6307;DHT22;3186;54.062;9.962;2024-03-08T14:52:46;10.30;88.60
6307;DHT22;3186;54.062;9.962;2024-03-08T14:55:17;10.20;99.90
6307;DHT22;3186;54.062;9.962;2024-03-08T14:57:45;10.20;99.90
6307;DHT22;3186;54.062;9.962;2024-03-08T15:00:12;10.40;99.90
6307;DHT22;3186;54.062;9.962;2024-03-08T15:02:56;10.30;99.90
6307;DHT22;3186;54.062;9.962;2024-03-08T15:05:24;10.20;99.80
6307;DHT22;3186;54.062;9.962;2024-03-08T15:07:53;10.40;99.90
6307;DHT22;3186;54.062;9.962;2024-03-08T15:10:20;10.30;99.90
6307;DHT22;3186;54.062;9.962;2024-03-08T15:12:48;10.10;99.90
6307;DHT22;3186;54.062;9.962;2024-03-08T15:15:14;10.10;99.90
6307;DHT22;3186;54.062;9.962;2024-03-08T15:17:44;10.20;99.90
6307;DHT22;3186;54.062;9.962;2024-03-08T15:20:13;10.30;99.90
6307;DHT22;3186;54.062;9.962;2024-03-08T15:22:43;10.10;99.90
6307;DHT22;3186;54.062;9.962;2024-03-08T15:25:09;10.00;99.90
6307;DHT22;3186;54.062;9.962;2024-03-08T15:27:38;10.00;99.90
6307;DHT22;3186;54.062;9.962;2024-03-08T15:30:05;10.10;99.90
6307;DHT22;3186;54.062;9.962;2024-03-08T15:32:33;9.90;99.80
6307;DHT22;3186;54.062;9.962;2024-03-08T15:34:59;9.90;97.80
6307;DHT22;3186;54.062;9.962;2024-03-08T15:37:24;10.00;99.90
6307;DHT22;3186;54.062;9.962;2024-03-08T15:39:51;10.00;99.90
6307;DHT22;3186;54.062;9.962;2024-03-08T15:42:16;9.80;99.90
6307;DHT22;3186;54.062;9.962;2024-03-08T15:44:42;9.90;99.90
6307;DHT22;3186;54.062;9.962;2024-03-08T15:47:08;9.80;99.90
6307;DHT22;3186;54.062;9.962;2024-03-08T15:49:37;9.90;99.90
6307;DHT22;3186;54.062;9.962;2024-03-08T15:52:02;10.00;99.90
6307;DHT22;3186;54.062;9.962;2024-03-08T15:54:29;9.90;99.90
6307;DHT22;3186;54.062;9.962;2024-03-08T15:56:55;9.70;99.90
6307;DHT22;3186;54.062;9.962;2024-03-08T15:59:20;9.60;99.90
6307;DHT22;3186;54.062;9.962;2024-03-08T16:01:46;9.80;99.90
6307;DHT22;3186;54.062;9.962;2024-03-08T16:04:16;9.70;99.90
6307;DHT22;3186;54.062;9.962;2024-03-08T16:06:42;9.40;99.90
6307;DHT22;3186;54.062;9.962;2024-03-08T16:09:09;9.40;99.90
6307;DHT22;3186;54.062;9.962;2024-03-08T16:11:40;9.40;99.90
6307;DHT22;3186;54.062;9.962;2024-03-08T16:14:06;9.50;99.90
6307;DHT22;3186;54.062;9.962;2024-03-08T16:16:37;9.40;99.90
6307;DHT22;3186;54.062;9.962;2024-03-08T16:19:04;9.30;99.90
6307;DHT22;3186;54.062;9.962;2024-03-08T16:21:35;9.20;99.90
6307;DHT22;3186;54.062;9.962;2024-03-08T16:24:01;9.10;99.90
6307;DHT22;3186;54.062;9.962;2024-03-08T16:26:28;9.00;99.90